Piney, Canada
Current Conditions -  °F | °C
As of 4:14 PM on Sunday 23 Nov 2014 (Local Time) from KROX Reporting Station
Haze Haze  
Wind Chill: 18°   Ceiling: 400
Heat Index: 28°   Visibility: 5mi
Dew Point: 25°   Wind: 12mph
Humidity: 86%   Direction: 280°W
Pressure: 29.42"   Gusts: 18mph
Location:  49.07°N, 95.97°W
Report Text: KROX 232214Z AUTO 28010G16KT 5SM HZ OVC004 M02/M04 A2942 RMK AO2
Loading
Personal Weather Stations






























Interactive Weather Map New forecast layout! Learn more

10-Day Weather Forecast

Advertisements
Track Severe Weather on mobile